MSC Susanna — 3ECU4 — position and weather

sailwx.info

Track history (hours):
 
Tides and Currents Weather Stations Pressure Air Temp Water Temp Dewpoint Dewpoint Depression Visibility Wind Speed Wind Dir Waves Ship Positions

MSC Susanna

Last reported at 2015-Feb-06 12:09 UTC. Time now 2015-Mar-01 12:39 UTC.
Position N 38°09' E 015°35'.
Warning: this ship's position is 23 days out of date.

Length 337 m; draft 10.9 m.

Type: Ship (hazmat cat A). MMSI: 371466000.

Date/timePositionNaut miles runAvg speedWind from/ knotsBaromVisibWave heightAir tempDewpointWater temp
2015-Feb-06 12:09N 38°09' E 015°35'1315.3
2015-Feb-06 11:19N 38°19' E 015°44'12 0.6
2015-Feb-05 15:12N 38°24' E 015°30'1016.2
2015-Feb-05 14:33N 38°22' E 015°17'1616.1
2015-Feb-05 13:33N 38°19' E 014°57'6415.8
2015-Feb-05 09:31N 38°19' E 013°35'1616.4
2015-Feb-05 08:34N 38°19' E 013°15'3316.7
2015-Feb-05 06:33N 38°19' E 012°33'1816.8
2015-Feb-05 05:30N 38°19' E 012°10'84217.2
2015-Feb-03 04:34N 36°01' W 005°12'24417.2
2015-Feb-02 14:22N 37°42' W 009°49'1619.1
2015-Feb-02 13:33N 37°57' W 009°53'2719.2
2015-Feb-02 12:10N 38°23' W 010°01'1219.5
2015-Feb-02 11:33N 38°35' W 010°04'1919.0
2015-Feb-02 10:33N 38°54' W 010°07'73316.1
2015-Jan-31 13:07N 49°59' W 002°58'1014.7
2015-Jan-31 12:24N 50°02' W 002°42'8514.5
2015-Jan-31 06:32N 50°24' W 000°34'1312.6
2015-Jan-31 05:30N 50°27' W 000°14'1313.1
2015-Jan-31 04:32N 50°31' E 000°05'1414.0
2015-Jan-31 03:33N 50°34' E 000°26'1514.8
2015-Jan-31 02:34N 50°43' E 000°45'1615.6
2015-Jan-31 01:33N 50°52' E 001°04'1515.3
2015-Jan-31 00:34N 51°02' E 001°23'1414.3
2015-Jan-30 23:34N 51°10' E 001°41'1313.5
2015-Jan-30 22:33N 51°21' E 001°54'1211.5
2015-Jan-30 21:34N 51°22' E 002°13'1313.0
2015-Jan-30 20:33N 51°23' E 002°33'1211.7
2015-Jan-30 19:34N 51°25' E 002°52'1716.9
2015-Jan-30 18:33N 51°24' E 003°19'1312.7
2015-Jan-30 17:33N 51°26' E 003°39'1211.7
2015-Jan-30 16:34N 51°23' E 003°57'10 9.6
2015-Jan-30 15:33N 51°24' E 004°12'4 4.4
2015-Jan-30 14:33N 51°21' E 004°17'1 1.2
2015-Jan-30 13:33N 51°20' E 004°18'1 0.9
2015-Jan-30 12:31N 51°19' E 004°20'0 0.0
2015-Jan-30 11:31N 51°19' E 004°20'0 0.0
2015-Jan-30 10:31N 51°19' E 004°20'0 0.0
2015-Jan-30 09:25N 51°19' E 004°20'0 0.0
2015-Jan-30 08:31N 51°19' E 004°20'0 0.0
2015-Jan-30 07:28N 51°19' E 004°20'0 0.0
2015-Jan-30 06:28N 51°19' E 004°20'0 0.0
2015-Jan-30 05:31N 51°19' E 004°20'0 0.0
2015-Jan-30 04:28N 51°19' E 004°20'0 0.0
2015-Jan-30 03:31N 51°19' E 004°20'0 0.0
2015-Jan-30 02:31N 51°19' E 004°20'0 0.0
2015-Jan-30 01:22N 51°19' E 004°20'0 0.0
2015-Jan-30 00:31N 51°19' E 004°20'0 0.0
2015-Jan-29 23:28N 51°19' E 004°20'0 0.0
2015-Jan-29 22:25N 51°19' E 004°20'0 0.0
2015-Jan-29 21:31N 51°19' E 004°20'0 0.0
2015-Jan-29 20:31N 51°19' E 004°20'0 0.0
2015-Jan-29 19:31N 51°19' E 004°20'0 0.0
2015-Jan-29 18:31N 51°19' E 004°20'0 0.0
2015-Jan-29 17:31N 51°19' E 004°20'0 0.0
2015-Jan-29 16:28N 51°19' E 004°20'0 0.0
2015-Jan-29 15:28N 51°19' E 004°20'0 0.0
2015-Jan-29 14:28N 51°19' E 004°20'0 0.0
2015-Jan-29 13:31N 51°19' E 004°20'0 0.3
2015-Jan-29 12:31N 51°20' E 004°19'2 1.9
2015-Jan-29 11:34N 51°21' E 004°17'1 1.1
2015-Jan-29 10:33N 51°21' E 004°15'3 2.7
2015-Jan-29 09:33N 51°23' E 004°13'9 8.9
2015-Jan-29 08:34N 51°26' E 003°59'1010.4
2015-Jan-29 07:33N 51°23' E 003°44'9 9.5
2015-Jan-29 06:33N 51°25' E 003°29'1212.5
2015-Jan-29 05:33N 51°24' E 003°09'1111.0
2015-Jan-29 04:33N 51°25' E 002°51'6 6.4
2015-Jan-29 03:33N 51°28' E 002°42'2 1.7
2015-Jan-29 02:33N 51°29' E 002°44'1211.8
2015-Jan-29 01:33N 51°37' E 002°57'1615.9
2015-Jan-29 00:32N 51°49' E 003°15'2017.2
2015-Jan-28 23:23N 52°08' E 003°22'1416.8
2015-Jan-28 22:33N 52°22' E 003°27'1716.4
2015-Jan-28 21:33N 52°38' E 003°32'1514.9
2015-Jan-28 20:33N 52°50' E 003°47'1515.2
2015-Jan-28 19:33N 53°00' E 004°05'1616.1
2015-Jan-28 18:33N 53°11' E 004°25'1717.0
2015-Jan-28 17:33N 53°27' E 004°37'1716.7
2015-Jan-28 16:33N 53°34' E 005°02'1716.5
2015-Jan-28 15:33N 53°40' E 005°28'1616.5
2015-Jan-28 14:33N 53°45' E 005°55'1615.8
2015-Jan-28 13:33N 53°49' E 006°20'3916.7
2015-Jan-28 11:12N 53°60' E 007°25'1117.7
2015-Jan-28 10:33N 54°02' E 007°44'1717.5
2015-Jan-28 09:33N 54°01' E 008°14'1716.7
2015-Jan-28 08:33N 53°55' E 008°40'1313.2
2015-Jan-28 07:33N 53°52' E 009°02'1110.9
2015-Jan-28 06:33N 53°50' E 009°20'1111.2
2015-Jan-28 05:33N 53°41' E 009°30'9 9.4
2015-Jan-28 04:33N 53°34' E 009°41'8 7.9
2015-Jan-28 03:33N 53°32' E 009°54'0 0.2
2015-Jan-28 02:33N 53°32' E 009°54'0 0.0
2015-Jan-28 01:33N 53°32' E 009°54'0 0.0
2015-Jan-28 00:33N 53°32' E 009°54'0 0.0
2015-Jan-27 23:33N 53°32' E 009°54'0 0.0
2015-Jan-27 22:33N 53°32' E 009°54'0 0.0
2015-Jan-27 21:33N 53°32' E 009°54'0 0.0
2015-Jan-27 20:32N 53°32' E 009°54'0 0.0
2015-Jan-27 19:32N 53°32' E 009°54'0 0.0
2015-Jan-27 18:32N 53°32' E 009°54'0 0.0
2015-Jan-27 17:32N 53°32' E 009°54'0 0.0
2015-Jan-27 16:29N 53°32' E 009°54'0 0.0
2015-Jan-27 15:32N 53°32' E 009°54'0 0.0
2015-Jan-27 14:32N 53°32' E 009°54'0 0.0
2015-Jan-27 13:32N 53°32' E 009°54'0 0.0
2015-Jan-27 12:32N 53°32' E 009°54'  
Track history (hours):
 
Tides and Currents Weather Stations Pressure Air Temp Water Temp Dewpoint Dewpoint Depression Visibility Wind Speed Wind Dir Waves Ship Positions

MSC Susanna

Last reported at 2015-Feb-06 12:09 UTC. Time now 2015-Mar-01 12:39 UTC.
Position N 38°09' E 015°35'.
Warning: this ship's position is 23 days out of date.

Length 337 m; draft 10.9 m.

Type: Ship (hazmat cat A). MMSI: 371466000.

Date/timePositionNaut miles runAvg speedWind from/ knotsBaromVisibWave heightAir tempDewpointWater temp
2015-Feb-06 12:09N 38°09' E 015°35'1315.3
2015-Feb-06 11:19N 38°19' E 015°44'12 0.6
2015-Feb-05 15:12N 38°24' E 015°30'1016.2
2015-Feb-05 14:33N 38°22' E 015°17'1616.1
2015-Feb-05 13:33N 38°19' E 014°57'6415.8
2015-Feb-05 09:31N 38°19' E 013°35'1616.4
2015-Feb-05 08:34N 38°19' E 013°15'3316.7
2015-Feb-05 06:33N 38°19' E 012°33'1816.8
2015-Feb-05 05:30N 38°19' E 012°10'84217.2
2015-Feb-03 04:34N 36°01' W 005°12'24417.2
2015-Feb-02 14:22N 37°42' W 009°49'1619.1
2015-Feb-02 13:33N 37°57' W 009°53'2719.2
2015-Feb-02 12:10N 38°23' W 010°01'1219.5
2015-Feb-02 11:33N 38°35' W 010°04'1919.0
2015-Feb-02 10:33N 38°54' W 010°07'73316.1
2015-Jan-31 13:07N 49°59' W 002°58'1014.7
2015-Jan-31 12:24N 50°02' W 002°42'8514.5
2015-Jan-31 06:32N 50°24' W 000°34'1312.6
2015-Jan-31 05:30N 50°27' W 000°14'1313.1
2015-Jan-31 04:32N 50°31' E 000°05'1414.0
2015-Jan-31 03:33N 50°34' E 000°26'1514.8
2015-Jan-31 02:34N 50°43' E 000°45'1615.6
2015-Jan-31 01:33N 50°52' E 001°04'1515.3
2015-Jan-31 00:34N 51°02' E 001°23'1414.3
2015-Jan-30 23:34N 51°10' E 001°41'1313.5
2015-Jan-30 22:33N 51°21' E 001°54'1211.5
2015-Jan-30 21:34N 51°22' E 002°13'1313.0
2015-Jan-30 20:33N 51°23' E 002°33'1211.7
2015-Jan-30 19:34N 51°25' E 002°52'1716.9
2015-Jan-30 18:33N 51°24' E 003°19'1312.7
2015-Jan-30 17:33N 51°26' E 003°39'1211.7
2015-Jan-30 16:34N 51°23' E 003°57'10 9.6
2015-Jan-30 15:33N 51°24' E 004°12'4 4.4
2015-Jan-30 14:33N 51°21' E 004°17'1 1.2
2015-Jan-30 13:33N 51°20' E 004°18'1 0.9
2015-Jan-30 12:31N 51°19' E 004°20'0 0.0
2015-Jan-30 11:31N 51°19' E 004°20'0 0.0
2015-Jan-30 10:31N 51°19' E 004°20'0 0.0
2015-Jan-30 09:25N 51°19' E 004°20'0 0.0
2015-Jan-30 08:31N 51°19' E 004°20'0 0.0
2015-Jan-30 07:28N 51°19' E 004°20'0 0.0
2015-Jan-30 06:28N 51°19' E 004°20'0 0.0
2015-Jan-30 05:31N 51°19' E 004°20'0 0.0
2015-Jan-30 04:28N 51°19' E 004°20'0 0.0
2015-Jan-30 03:31N 51°19' E 004°20'0 0.0
2015-Jan-30 02:31N 51°19' E 004°20'0 0.0
2015-Jan-30 01:22N 51°19' E 004°20'0 0.0
2015-Jan-30 00:31N 51°19' E 004°20'0 0.0
2015-Jan-29 23:28N 51°19' E 004°20'0 0.0
2015-Jan-29 22:25N 51°19' E 004°20'0 0.0
2015-Jan-29 21:31N 51°19' E 004°20'0 0.0
2015-Jan-29 20:31N 51°19' E 004°20'0 0.0
2015-Jan-29 19:31N 51°19' E 004°20'0 0.0
2015-Jan-29 18:31N 51°19' E 004°20'0 0.0
2015-Jan-29 17:31N 51°19' E 004°20'0 0.0
2015-Jan-29 16:28N 51°19' E 004°20'0 0.0
2015-Jan-29 15:28N 51°19' E 004°20'0 0.0
2015-Jan-29 14:28N 51°19' E 004°20'0 0.0
2015-Jan-29 13:31N 51°19' E 004°20'0 0.3
2015-Jan-29 12:31N 51°20' E 004°19'2 1.9
2015-Jan-29 11:34N 51°21' E 004°17'1 1.1
2015-Jan-29 10:33N 51°21' E 004°15'3 2.7
2015-Jan-29 09:33N 51°23' E 004°13'9 8.9
2015-Jan-29 08:34N 51°26' E 003°59'1010.4
2015-Jan-29 07:33N 51°23' E 003°44'9 9.5
2015-Jan-29 06:33N 51°25' E 003°29'1212.5
2015-Jan-29 05:33N 51°24' E 003°09'1111.0
2015-Jan-29 04:33N 51°25' E 002°51'6 6.4
2015-Jan-29 03:33N 51°28' E 002°42'2 1.7
2015-Jan-29 02:33N 51°29' E 002°44'1211.8
2015-Jan-29 01:33N 51°37' E 002°57'1615.9
2015-Jan-29 00:32N 51°49' E 003°15'2017.2
2015-Jan-28 23:23N 52°08' E 003°22'1416.8
2015-Jan-28 22:33N 52°22' E 003°27'1716.4
2015-Jan-28 21:33N 52°38' E 003°32'1514.9
2015-Jan-28 20:33N 52°50' E 003°47'1515.2
2015-Jan-28 19:33N 53°00' E 004°05'1616.1
2015-Jan-28 18:33N 53°11' E 004°25'1717.0
2015-Jan-28 17:33N 53°27' E 004°37'1716.7
2015-Jan-28 16:33N 53°34' E 005°02'1716.5
2015-Jan-28 15:33N 53°40' E 005°28'1616.5
2015-Jan-28 14:33N 53°45' E 005°55'1615.8
2015-Jan-28 13:33N 53°49' E 006°20'3916.7
2015-Jan-28 11:12N 53°60' E 007°25'1117.7
2015-Jan-28 10:33N 54°02' E 007°44'1717.5
2015-Jan-28 09:33N 54°01' E 008°14'1716.7
2015-Jan-28 08:33N 53°55' E 008°40'1313.2
2015-Jan-28 07:33N 53°52' E 009°02'1110.9
2015-Jan-28 06:33N 53°50' E 009°20'1111.2
2015-Jan-28 05:33N 53°41' E 009°30'9 9.4
2015-Jan-28 04:33N 53°34' E 009°41'8 7.9
2015-Jan-28 03:33N 53°32' E 009°54'0 0.2
2015-Jan-28 02:33N 53°32' E 009°54'0 0.0
2015-Jan-28 01:33N 53°32' E 009°54'0 0.0
2015-Jan-28 00:33N 53°32' E 009°54'0 0.0
2015-Jan-27 23:33N 53°32' E 009°54'0 0.0
2015-Jan-27 22:33N 53°32' E 009°54'0 0.0
2015-Jan-27 21:33N 53°32' E 009°54'0 0.0
2015-Jan-27 20:32N 53°32' E 009°54'0 0.0
2015-Jan-27 19:32N 53°32' E 009°54'0 0.0
2015-Jan-27 18:32N 53°32' E 009°54'0 0.0
2015-Jan-27 17:32N 53°32' E 009°54'0 0.0
2015-Jan-27 16:29N 53°32' E 009°54'0 0.0
2015-Jan-27 15:32N 53°32' E 009°54'0 0.0
2015-Jan-27 14:32N 53°32' E 009°54'0 0.0
2015-Jan-27 13:32N 53°32' E 009°54'0 0.0
2015-Jan-27 12:32N 53°32' E 009°54'  

Dump ship's entire track history